Time;durP1;ratioP1;P1;durP2;ratioP2;P2;SDS_P1;SDS_P2;PMS_P1;PMS_P2;Temp;Humidity;BMP_temperature;BMP_pressure;BME280_temperature;BME280_humidity;BME280_pressure;Samples;Min_cycle;Max_cycle;Signal;HPM_P1;HPM_P2
2023/12/09 00:00:19;;;;;;;6.15;5.65;;;1.50;99.90;;;;;;5083474;28;20209;-72
2023/12/09 00:02:46;;;;;;;5.47;5.07;;;1.50;99.90;;;;;;5082394;28;20232;-72
2023/12/09 00:05:13;;;;;;;5.95;5.45;;;1.50;99.90;;;;;;5093053;28;20219;-72
2023/12/09 00:07:41;;;;;;;6.60;6.13;;;1.50;99.90;;;;;;5068064;28;20224;-71
2023/12/09 00:10:09;;;;;;;7.07;6.57;;;1.50;99.90;;;;;;5090403;28;20226;-71
2023/12/09 00:12:37;;;;;;;6.28;5.82;;;1.50;99.90;;;;;;5081963;28;20230;-72
2023/12/09 00:15:05;;;;;;;6.53;6.03;;;1.50;99.90;;;;;;5080302;28;20209;-72
2023/12/09 00:17:35;;;;;;;6.60;6.20;;;1.40;99.90;;;;;;5078111;28;21040;-71
2023/12/09 00:20:04;;;;;;;6.28;5.88;;;1.40;99.90;;;;;;5082109;28;20186;-71
2023/12/09 00:22:32;;;;;;;6.20;5.70;;;1.40;99.90;;;;;;5076747;28;20252;-71
2023/12/09 00:24:59;;;;;;;6.80;6.30;;;1.40;99.90;;;;;;5079405;28;20201;-71
2023/12/09 00:27:27;;;;;;;6.38;5.88;;;1.40;99.90;;;;;;5077557;28;20225;-71
2023/12/09 00:29:55;;;;;;;6.00;5.60;;;1.40;99.90;;;;;;5076979;28;20305;-71
2023/12/09 00:32:22;;;;;;;6.18;5.68;;;1.40;99.90;;;;;;5076172;28;20226;-71
2023/12/09 00:34:51;;;;;;;5.90;5.50;;;1.40;99.90;;;;;;5077401;28;20201;-72
2023/12/09 00:37:18;;;;;;;6.55;6.05;;;1.40;99.90;;;;;;5077062;28;20229;-71
2023/12/09 00:39:45;;;;;;;6.15;5.68;;;1.40;99.90;;;;;;5076961;28;20209;-71
2023/12/09 00:42:12;;;;;;;6.13;5.63;;;1.30;99.90;;;;;;5077492;28;20225;-71
2023/12/09 00:44:40;;;;;;;5.60;5.20;;;1.30;99.90;;;;;;5079167;28;20743;-71
2023/12/09 00:47:07;;;;;;;6.45;5.95;;;1.30;99.90;;;;;;5082932;28;20252;-71
2023/12/09 00:49:34;;;;;;;6.45;6.05;;;1.30;99.90;;;;;;5084149;28;20244;-71
2023/12/09 00:52:03;;;;;;;5.45;5.05;;;1.30;99.90;;;;;;5083679;28;20218;-71
2023/12/09 00:54:30;;;;;;;5.72;5.32;;;1.30;99.90;;;;;;5081595;28;20198;-72
2023/12/09 00:56:57;;;;;;;6.93;6.28;;;1.40;99.90;;;;;;5091611;28;20892;-71
2023/12/09 00:59:24;;;;;;;6.97;6.47;;;1.40;99.90;;;;;;5082202;28;20193;-71
2023/12/09 01:01:51;;;;;;;6.43;5.93;;;1.30;99.90;;;;;;5082054;28;20283;-71
2023/12/09 01:04:19;;;;;;;6.93;6.43;;;1.30;99.90;;;;;;5080199;28;20296;-71
2023/12/09 01:06:46;;;;;;;6.38;5.88;;;1.30;99.90;;;;;;5083746;28;20308;-71
2023/12/09 01:09:15;;;;;;;5.93;5.53;;;1.30;99.90;;;;;;5086790;28;20213;-72
2023/12/09 01:11:42;;;;;;;5.97;5.57;;;1.30;99.90;;;;;;5079214;28;20226;-71
2023/12/09 01:14:09;;;;;;;6.18;5.68;;;1.30;99.90;;;;;;5080526;28;20205;-71
2023/12/09 01:16:37;;;;;;;6.00;5.50;;;1.30;99.90;;;;;;5085748;28;20260;-71
2023/12/09 01:19:05;;;;;;;6.22;5.80;;;1.30;99.90;;;;;;5079621;28;20204;-71
2023/12/09 01:21:32;;;;;;;6.00;5.50;;;1.30;99.90;;;;;;5081763;28;20306;-72
2023/12/09 01:23:59;;;;;;;6.18;5.68;;;1.30;99.90;;;;;;5079736;28;20201;-71
2023/12/09 01:26:28;;;;;;;5.63;5.32;;;1.30;99.90;;;;;;5082988;28;20220;-72
2023/12/09 01:28:55;;;;;;;6.72;6.22;;;1.40;99.90;;;;;;5084070;28;20209;-72
2023/12/09 01:31:22;;;;;;;7.32;6.82;;;1.40;99.90;;;;;;5083829;28;20244;-72
2023/12/09 01:33:49;;;;;;;6.97;6.47;;;1.40;99.90;;;;;;5083636;28;20205;-71
2023/12/09 01:36:17;;;;;;;6.22;5.70;;;1.30;99.90;;;;;;5082471;28;20205;-72
2023/12/09 01:38:44;;;;;;;6.55;6.05;;;1.30;99.90;;;;;;5082168;28;20206;-72
2023/12/09 01:41:11;;;;;;;6.10;5.70;;;1.30;99.90;;;;;;5077586;28;20602;-73
2023/12/09 01:43:40;;;;;;;6.18;5.68;;;1.30;99.90;;;;;;5081950;28;20210;-72
2023/12/09 01:46:10;;;;;;;6.07;5.65;;;1.30;99.90;;;;;;5085172;28;20685;-72
2023/12/09 01:48:38;;;;;;;5.25;4.95;;;1.30;99.90;;;;;;5084616;28;20201;-72
2023/12/09 01:51:06;;;;;;;5.57;5.18;;;1.30;99.90;;;;;;5081281;28;20229;-72
2023/12/09 01:53:37;;;;;;;5.90;5.50;;;1.30;99.90;;;;;;5081949;28;20210;-74
2023/12/09 01:56:07;;;;;;;5.93;5.53;;;1.30;99.90;;;;;;5077503;28;20742;-75
2023/12/09 01:58:35;;;;;;;6.40;6.00;;;1.20;99.90;;;;;;5079577;28;20197;-74
2023/12/09 02:01:05;;;;;;;5.95;5.55;;;1.20;99.90;;;;;;5077619;28;20252;-75
2023/12/09 02:03:32;;;;;;;6.03;5.63;;;1.20;99.90;;;;;;5081303;28;20618;-74
2023/12/09 02:06:01;;;;;;;6.82;6.28;;;1.20;99.90;;;;;;5084052;28;20579;-75
2023/12/09 02:08:28;;;;;;;6.20;5.70;;;1.20;99.90;;;;;;5086008;28;20206;-75
2023/12/09 02:11:07;;;;;;;5.88;5.47;;;1.20;99.90;;;;;;5086257;28;20230;-74
2023/12/09 02:13:46;;;;;;;6.75;6.15;;;1.20;99.90;;;;;;5077059;28;20640;-74
2023/12/09 02:16:21;;;;;;;5.95;5.55;;;1.20;99.90;;;;;;5075581;28;20808;-75
2023/12/09 02:18:50;;;;;;;6.55;6.05;;;1.20;99.90;;;;;;5083868;28;20208;-74
2023/12/09 02:21:17;;;;;;;6.28;5.78;;;1.20;99.90;;;;;;5079751;28;20570;-74
2023/12/09 02:23:48;;;;;;;6.70;6.20;;;1.30;99.90;;;;;;5081120;28;20197;-74
2023/12/09 02:26:22;;;;;;;6.30;5.78;;;1.30;99.90;;;;;;5078458;28;20202;-75
2023/12/09 02:28:55;;;;;;;6.68;6.20;;;1.30;99.90;;;;;;5080452;28;20296;-74
2023/12/09 02:31:27;;;;;;;6.60;6.07;;;1.30;99.90;;;;;;5083515;28;20217;-74
2023/12/09 02:33:56;;;;;;;6.68;6.18;;;1.30;99.90;;;;;;5082428;28;20197;-73
2023/12/09 02:36:25;;;;;;;6.00;5.60;;;1.40;99.90;;;;;;5079129;28;20199;-74
2023/12/09 02:38:55;;;;;;;5.60;5.20;;;1.40;99.90;;;;;;5080266;28;20289;-74
2023/12/09 02:41:24;;;;;;;6.85;6.35;;;1.30;99.90;;;;;;5078847;28;20214;-74
2023/12/09 02:43:51;;;;;;;5.90;5.50;;;1.40;99.90;;;;;;5080248;28;20209;-74
2023/12/09 02:46:18;;;;;;;4.75;4.43;;;1.40;99.90;;;;;;5077606;28;20221;-74
2023/12/09 02:48:45;;;;;;;6.18;5.43;;;1.30;99.90;;;;;;5087659;28;20197;-74
2023/12/09 02:51:13;;;;;;;5.88;5.47;;;1.40;99.90;;;;;;5075682;28;20217;-74
2023/12/09 02:53:40;;;;;;;5.53;5.13;;;1.40;99.90;;;;;;5080417;28;20197;-75
2023/12/09 02:56:10;;;;;;;5.63;5.20;;;1.40;99.90;;;;;;5081267;28;20213;-74
2023/12/09 02:58:37;;;;;;;5.68;5.28;;;1.40;99.90;;;;;;5074512;28;20218;-74
2023/12/09 03:01:05;;;;;;;5.40;5.10;;;1.40;99.90;;;;;;5076564;28;20769;-74
2023/12/09 03:03:32;;;;;;;5.32;5.00;;;1.40;99.90;;;;;;5077876;28;20738;-74
2023/12/09 03:05:59;;;;;;;5.22;4.93;;;1.40;99.90;;;;;;5082503;28;20259;-74
2023/12/09 03:08:26;;;;;;;6.50;6.10;;;1.40;99.90;;;;;;5085057;28;20630;-74
2023/12/09 03:10:53;;;;;;;5.75;5.35;;;1.50;99.90;;;;;;5078468;28;20225;-73
2023/12/09 03:13:22;;;;;;;5.68;5.28;;;1.40;99.90;;;;;;5076804;28;20221;-74
2023/12/09 03:15:49;;;;;;;5.60;5.20;;;1.40;99.90;;;;;;5080831;28;20509;-75
2023/12/09 03:18:16;;;;;;;5.65;5.25;;;1.40;99.90;;;;;;5080930;28;20230;-74
2023/12/09 03:20:44;;;;;;;5.45;5.05;;;1.40;99.90;;;;;;5076622;28;20212;-74
2023/12/09 03:23:11;;;;;;;5.22;4.93;;;1.40;99.90;;;;;;5079416;28;20237;-74
2023/12/09 03:25:38;;;;;;;6.13;5.70;;;1.40;99.90;;;;;;5085084;28;20202;-75
2023/12/09 03:28:05;;;;;;;5.63;5.22;;;1.40;99.90;;;;;;5075561;28;20216;-75
2023/12/09 03:30:37;;;;;;;5.70;5.30;;;1.40;99.90;;;;;;5081767;28;20252;-75
2023/12/09 03:33:04;;;;;;;6.40;5.90;;;1.40;99.90;;;;;;5079636;28;20213;-75
2023/12/09 03:35:31;;;;;;;6.00;5.60;;;1.40;99.90;;;;;;5086552;28;20201;-75
2023/12/09 03:37:58;;;;;;;5.70;5.30;;;1.40;99.90;;;;;;5078614;28;20824;-76
2023/12/09 03:40:26;;;;;;;6.18;5.68;;;1.50;99.90;;;;;;5082316;28;20511;-75
2023/12/09 03:42:53;;;;;;;5.28;4.88;;;1.50;99.90;;;;;;5058365;28;20636;-75
2023/12/09 03:45:20;;;;;;;5.13;4.82;;;1.50;99.90;;;;;;5085227;28;20201;-76
2023/12/09 03:47:49;;;;;;;5.55;5.15;;;1.50;99.90;;;;;;5079959;28;20213;-75
2023/12/09 03:50:16;;;;;;;5.78;5.38;;;1.50;99.90;;;;;;5079974;28;20213;-76
2023/12/09 03:52:44;;;;;;;6.20;5.72;;;1.50;99.90;;;;;;5079005;28;20225;-75
2023/12/09 03:55:11;;;;;;;5.05;4.75;;;1.40;99.90;;;;;;5080275;28;20205;-76
2023/12/09 03:57:39;;;;;;;5.20;4.90;;;1.40;99.90;;;;;;5076721;28;20228;-75
2023/12/09 04:00:09;;;;;;;6.43;5.93;;;1.40;99.90;;;;;;5076562;28;20204;-75
2023/12/09 04:02:36;;;;;;;5.75;5.25;;;1.50;99.90;;;;;;5076378;28;20222;-76
2023/12/09 04:05:07;;;;;;;5.68;5.28;;;1.50;99.90;;;;;;5081075;28;20201;-75
2023/12/09 04:07:34;;;;;;;6.28;5.88;;;1.50;99.90;;;;;;5076446;28;21088;-76
2023/12/09 04:10:01;;;;;;;6.07;5.68;;;1.50;99.90;;;;;;5076337;28;20437;-76
2023/12/09 04:12:28;;;;;;;6.05;5.57;;;1.60;99.90;;;;;;5080377;28;20217;-75
2023/12/09 04:14:56;;;;;;;5.85;5.47;;;1.50;99.90;;;;;;5080217;28;20419;-75
2023/12/09 04:17:24;;;;;;;5.90;5.50;;;1.60;99.90;;;;;;5079529;28;20276;-74
2023/12/09 04:19:52;;;;;;;6.32;5.90;;;1.60;99.90;;;;;;5078319;28;20212;-75
2023/12/09 04:22:21;;;;;;;5.93;5.53;;;1.60;99.90;;;;;;5080258;28;20282;-75
2023/12/09 04:24:48;;;;;;;6.18;5.78;;;1.60;99.90;;;;;;5081924;28;20212;-75
2023/12/09 04:27:16;;;;;;;5.90;5.50;;;1.60;99.90;;;;;;5064758;28;20236;-75
2023/12/09 04:29:44;;;;;;;6.10;5.70;;;1.60;99.90;;;;;;5061897;28;20207;-75
2023/12/09 04:32:11;;;;;;;6.70;6.20;;;1.50;99.90;;;;;;5065777;28;20225;-74
2023/12/09 04:34:39;;;;;;;6.40;5.90;;;1.50;99.90;;;;;;5088631;28;20216;-75
2023/12/09 04:37:06;;;;;;;5.72;5.32;;;1.40;99.90;;;;;;5081638;28;20670;-75
2023/12/09 04:39:34;;;;;;;7.57;6.25;;;1.40;99.90;;;;;;5082850;28;20201;-75
2023/12/09 04:42:02;;;;;;;6.75;6.25;;;1.40;99.90;;;;;;5076581;28;20228;-75
2023/12/09 04:44:29;;;;;;;6.70;6.30;;;1.40;99.90;;;;;;5078498;28;20202;-75
2023/12/09 04:46:56;;;;;;;6.60;6.10;;;1.40;99.90;;;;;;5083493;28;20218;-75
2023/12/09 04:49:23;;;;;;;7.00;6.40;;;1.40;99.90;;;;;;5083498;28;20197;-75
2023/12/09 04:51:50;;;;;;;6.63;6.13;;;1.50;99.90;;;;;;5084277;28;20810;-75
2023/12/09 04:54:18;;;;;;;6.15;5.65;;;1.50;99.90;;;;;;5082558;28;20310;-74
2023/12/09 04:56:46;;;;;;;6.38;5.88;;;1.50;99.90;;;;;;5082443;28;20229;-75
2023/12/09 04:59:14;;;;;;;5.90;5.50;;;1.60;99.90;;;;;;5079000;28;21054;-75
2023/12/09 05:01:41;;;;;;;5.70;5.30;;;1.60;99.90;;;;;;5078808;28;20308;-75
2023/12/09 05:04:09;;;;;;;6.85;6.35;;;1.70;99.90;;;;;;5078897;28;20797;-75
2023/12/09 05:06:37;;;;;;;5.70;5.30;;;1.70;99.90;;;;;;5075793;28;20229;-74
2023/12/09 05:09:04;;;;;;;5.70;5.30;;;1.70;99.90;;;;;;5083497;28;20608;-74
2023/12/09 05:11:34;;;;;;;5.65;5.25;;;1.70;99.90;;;;;;5082259;28;20587;-74
2023/12/09 05:14:02;;;;;;;5.95;5.40;;;1.70;99.90;;;;;;5084686;28;20202;-74
2023/12/09 05:16:29;;;;;;;5.47;5.18;;;1.70;99.90;;;;;;5083256;28;20296;-74
2023/12/09 05:18:56;;;;;;;5.72;5.30;;;1.70;99.90;;;;;;5086562;28;20278;-74
2023/12/09 05:21:24;;;;;;;5.97;5.57;;;1.70;99.90;;;;;;5082599;28;20228;-74
2023/12/09 05:23:51;;;;;;;5.85;5.45;;;1.70;99.90;;;;;;5079642;28;20210;-74
2023/12/09 05:26:23;;;;;;;5.95;5.55;;;1.70;99.90;;;;;;5081617;28;20673;-74
2023/12/09 05:28:50;;;;;;;6.18;5.78;;;1.60;99.90;;;;;;5078691;28;20274;-75
2023/12/09 05:31:19;;;;;;;6.05;5.65;;;1.60;99.90;;;;;;5076296;28;20225;-76
2023/12/09 05:33:46;;;;;;;6.72;6.22;;;1.60;99.90;;;;;;5081225;28;20208;-75
2023/12/09 05:36:15;;;;;;;6.45;5.95;;;1.50;99.90;;;;;;5083772;28;20232;-76
2023/12/09 05:38:43;;;;;;;6.10;5.70;;;1.50;99.90;;;;;;5082209;28;20202;-75
2023/12/09 05:41:11;;;;;;;5.93;5.53;;;1.50;99.90;;;;;;5081038;28;20226;-75
2023/12/09 05:43:38;;;;;;;5.95;5.55;;;1.50;99.90;;;;;;5078208;28;20217;-74
2023/12/09 05:46:06;;;;;;;6.28;5.78;;;1.40;99.90;;;;;;5081550;28;20197;-75
2023/12/09 05:48:36;;;;;;;6.35;5.95;;;1.40;99.90;;;;;;5079695;28;20247;-74
2023/12/09 05:51:03;;;;;;;5.88;5.47;;;1.40;99.90;;;;;;5080560;28;20217;-75
2023/12/09 05:53:31;;;;;;;5.70;5.30;;;1.40;99.90;;;;;;5077343;28;20233;-75
2023/12/09 05:55:58;;;;;;;6.00;5.60;;;1.30;99.90;;;;;;5081626;28;20198;-74
2023/12/09 05:58:25;;;;;;;5.85;5.45;;;1.40;99.90;;;;;;5082783;28;20707;-74
2023/12/09 06:00:53;;;;;;;5.80;5.40;;;1.30;99.90;;;;;;5081091;28;20224;-74
2023/12/09 06:03:20;;;;;;;7.28;6.60;;;1.30;99.90;;;;;;5082446;28;20290;-74
2023/12/09 06:05:49;;;;;;;6.43;5.88;;;1.20;99.90;;;;;;5078995;28;20208;-74
2023/12/09 06:08:17;;;;;;;6.57;6.00;;;1.20;99.90;;;;;;5081460;28;20244;-74
2023/12/09 06:10:44;;;;;;;6.55;5.95;;;1.10;99.90;;;;;;5085265;28;20233;-74
2023/12/09 06:13:11;;;;;;;6.40;5.90;;;1.10;99.90;;;;;;5079553;28;20225;-74
2023/12/09 06:15:39;;;;;;;7.20;6.68;;;1.10;99.90;;;;;;5083124;28;20201;-74
2023/12/09 06:18:06;;;;;;;6.38;5.88;;;1.10;99.90;;;;;;5079510;28;20221;-74
2023/12/09 06:20:33;;;;;;;6.60;6.10;;;1.10;99.90;;;;;;5080949;28;20224;-75
2023/12/09 06:23:03;;;;;;;6.55;6.05;;;1.00;99.90;;;;;;5077785;28;20213;-74
2023/12/09 06:25:30;;;;;;;6.18;5.78;;;1.00;99.90;;;;;;5082111;28;20194;-74
2023/12/09 06:27:58;;;;;;;6.40;5.93;;;1.00;99.90;;;;;;5066887;28;20217;-74
2023/12/09 06:30:25;;;;;;;6.35;5.95;;;1.00;99.90;;;;;;5081541;28;20233;-74
2023/12/09 06:32:52;;;;;;;6.60;6.10;;;1.00;99.90;;;;;;5078834;28;20221;-74
2023/12/09 06:35:19;;;;;;;6.45;6.05;;;1.00;99.90;;;;;;5078945;28;20205;-74
2023/12/09 06:37:46;;;;;;;6.10;5.60;;;1.00;99.90;;;;;;5064458;28;20226;-74
2023/12/09 06:40:15;;;;;;;6.00;5.60;;;1.00;99.90;;;;;;5054551;28;20199;-73
2023/12/09 06:42:42;;;;;;;6.15;5.72;;;1.00;99.90;;;;;;5071318;28;20221;-74
2023/12/09 06:45:10;;;;;;;6.47;5.97;;;1.00;99.90;;;;;;5082109;28;21064;-74
2023/12/09 06:47:38;;;;;;;6.15;5.55;;;1.00;99.90;;;;;;5081329;28;20583;-74
2023/12/09 06:50:06;;;;;;;6.18;5.78;;;1.00;99.90;;;;;;5080732;28;20224;-73
2023/12/09 06:52:33;;;;;;;5.45;5.05;;;1.00;99.90;;;;;;5079482;28;20267;-74
2023/12/09 06:55:00;;;;;;;6.13;5.72;;;1.00;99.90;;;;;;5080732;28;20198;-74
2023/12/09 06:57:29;;;;;;;5.25;4.95;;;1.10;99.90;;;;;;5081096;28;20252;-74
2023/12/09 06:59:57;;;;;;;5.70;5.30;;;1.10;99.90;;;;;;5077307;28;20202;-74
2023/12/09 07:02:24;;;;;;;5.18;4.88;;;1.10;99.90;;;;;;5082780;28;20231;-74
2023/12/09 07:04:51;;;;;;;4.95;4.57;;;1.10;99.90;;;;;;5083238;28;20197;-75
2023/12/09 07:07:19;;;;;;;5.28;4.88;;;1.10;99.90;;;;;;5080674;28;20308;-75
2023/12/09 07:09:46;;;;;;;5.53;5.13;;;1.10;99.90;;;;;;5088424;28;20217;-75
2023/12/09 07:12:13;;;;;;;5.70;5.20;;;1.00;99.90;;;;;;5082134;27;20232;-75
2023/12/09 07:14:42;;;;;;;6.00;5.50;;;1.00;99.90;;;;;;5075507;28;20209;-74
2023/12/09 07:17:09;;;;;;;5.78;5.40;;;1.00;99.90;;;;;;5083913;28;20252;-74
2023/12/09 07:19:37;;;;;;;6.22;5.82;;;1.00;99.90;;;;;;5079050;28;20255;-74
2023/12/09 07:22:04;;;;;;;7.00;6.40;;;1.00;99.90;;;;;;5063164;28;20464;-74
2023/12/09 07:24:31;;;;;;;6.45;5.97;;;1.00;99.90;;;;;;5083091;28;20665;-74
2023/12/09 07:26:59;;;;;;;6.70;6.20;;;1.00;99.90;;;;;;5078650;28;20222;-74
2023/12/09 07:29:26;;;;;;;7.30;6.78;;;1.00;99.90;;;;;;5079057;28;20201;-74
2023/12/09 07:31:55;;;;;;;7.20;6.60;;;1.00;99.90;;;;;;5080796;28;20228;-75
2023/12/09 07:34:22;;;;;;;6.18;5.68;;;1.00;99.90;;;;;;5088611;28;20201;-75
2023/12/09 07:36:49;;;;;;;6.50;6.00;;;1.10;99.90;;;;;;5066752;28;20660;-75
2023/12/09 07:39:17;;;;;;;5.90;5.40;;;1.10;99.90;;;;;;5081847;28;20224;-75
2023/12/09 07:41:45;;;;;;;5.90;5.50;;;1.20;99.90;;;;;;5077792;28;20220;-75
2023/12/09 07:44:12;;;;;;;6.18;5.57;;;1.20;99.90;;;;;;5085698;28;20228;-75
2023/12/09 07:46:39;;;;;;;6.15;5.65;;;1.20;99.90;;;;;;5086907;28;21165;-75
2023/12/09 07:49:08;;;;;;;6.05;5.65;;;1.30;99.90;;;;;;5075343;28;20242;-75
2023/12/09 07:51:37;;;;;;;5.80;5.40;;;1.20;99.90;;;;;;5074813;28;20241;-75
2023/12/09 07:54:07;;;;;;;5.57;5.18;;;1.30;99.90;;;;;;5076369;28;20595;-75
2023/12/09 07:56:35;;;;;;;5.80;5.40;;;1.30;99.90;;;;;;5076156;28;20236;-76
2023/12/09 07:59:02;;;;;;;6.13;5.72;;;1.30;99.90;;;;;;5085357;28;20217;-76
2023/12/09 08:01:29;;;;;;;5.70;5.28;;;1.30;99.90;;;;;;5078353;28;20221;-75
2023/12/09 08:03:56;;;;;;;6.25;5.65;;;1.40;99.90;;;;;;5088163;28;20714;-75
2023/12/09 08:06:27;;;;;;;6.78;6.28;;;1.40;99.90;;;;;;5078981;28;20198;-76
2023/12/09 08:08:54;;;;;;;6.70;6.20;;;1.40;99.90;;;;;;5079444;28;20285;-75
2023/12/09 08:11:22;;;;;;;7.50;6.80;;;1.50;99.90;;;;;;5078976;28;20262;-76
2023/12/09 08:13:49;;;;;;;7.95;7.35;;;2.20;99.90;;;;;;5079986;28;20675;-76
2023/12/09 08:16:16;;;;;;;8.52;7.82;;;3.30;99.90;;;;;;5078255;28;20223;-77
2023/12/09 08:18:43;;;;;;;9.20;8.40;;;4.20;99.90;;;;;;5080069;28;20731;-75
2023/12/09 08:21:11;;;;;;;8.30;7.60;;;5.10;99.90;;;;;;5080818;28;20642;-75
2023/12/09 08:23:39;;;;;;;8.32;7.63;;;5.80;99.90;;;;;;5075901;28;20823;-75
2023/12/09 08:26:07;;;;;;;8.23;7.53;;;6.50;99.90;;;;;;5075966;28;20204;-75
2023/12/09 08:28:34;;;;;;;8.82;8.13;;;6.90;99.90;;;;;;5076475;28;20757;-78
2023/12/09 08:31:04;;;;;;;9.18;8.38;;;7.30;99.90;;;;;;5076302;28;20248;-74
2023/12/09 08:33:31;;;;;;;9.13;8.43;;;7.50;99.90;;;;;;5078736;28;20770;-75
2023/12/09 08:35:58;;;;;;;9.50;8.60;;;7.80;99.90;;;;;;5079513;28;20201;-77
2023/12/09 08:38:25;;;;;;;8.63;7.80;;;8.10;99.90;;;;;;5081503;28;20217;-74
2023/12/09 08:40:54;;;;;;;8.00;7.40;;;8.50;99.90;;;;;;5080802;28;20290;-75
2023/12/09 08:43:22;;;;;;;8.38;7.65;;;8.60;99.90;;;;;;5080500;28;20614;-74
2023/12/09 08:45:49;;;;;;;9.25;8.18;;;8.70;99.90;;;;;;5084967;28;20206;-75
2023/12/09 08:48:16;;;;;;;8.52;7.60;;;9.10;99.90;;;;;;5080532;28;20220;-75
2023/12/09 08:50:43;;;;;;;8.52;7.82;;;9.80;99.90;;;;;;5075725;28;20229;-77
2023/12/09 08:53:11;;;;;;;7.65;6.97;;;10.30;99.90;;;;;;5074645;28;20236;-76
2023/12/09 08:55:39;;;;;;;9.25;8.35;;;10.80;99.90;;;;;;5080821;28;20202;-78
2023/12/09 08:58:09;;;;;;;10.85;9.95;;;11.00;99.90;;;;;;5084565;28;20886;-75
2023/12/09 09:00:36;;;;;;;9.68;8.77;;;11.30;99.90;;;;;;5076930;28;20701;-73
2023/12/09 09:03:03;;;;;;;9.55;8.70;;;11.70;99.90;;;;;;5073830;28;20620;-73
2023/12/09 09:05:30;;;;;;;10.10;9.20;;;11.80;99.90;;;;;;5073286;28;20237;-74
2023/12/09 09:07:58;;;;;;;9.13;8.35;;;12.50;99.90;;;;;;5076512;28;20218;-72
2023/12/09 09:10:25;;;;;;;8.80;7.90;;;12.90;99.90;;;;;;5081662;28;20760;-73
2023/12/09 09:12:52;;;;;;;8.98;8.18;;;13.10;99.90;;;;;;5078344;28;20213;-73
2023/12/09 09:15:21;;;;;;;9.40;8.50;;;12.40;99.90;;;;;;5081459;28;20218;-73
2023/12/09 09:17:49;;;;;;;9.18;8.38;;;11.90;99.90;;;;;;5081176;28;20241;-72
2023/12/09 09:20:16;;;;;;;8.98;8.18;;;12.80;99.90;;;;;;5084900;28;20225;-71
2023/12/09 09:22:43;;;;;;;8.85;8.05;;;13.00;99.90;;;;;;5078137;28;20221;-72
2023/12/09 09:25:10;;;;;;;9.30;8.40;;;13.20;99.90;;;;;;5079428;28;20197;-73
2023/12/09 09:27:38;;;;;;;9.90;8.93;;;13.70;99.90;;;;;;5083880;28;20218;-71
2023/12/09 09:30:06;;;;;;;10.55;8.32;;;13.50;99.90;;;;;;5079851;28;20206;-72
2023/12/09 09:32:35;;;;;;;8.95;8.15;;;13.20;99.90;;;;;;5079460;28;20214;-72
2023/12/09 09:35:02;;;;;;;8.75;7.95;;;13.20;99.90;;;;;;5080914;28;20197;-73
2023/12/09 09:37:29;;;;;;;8.85;8.05;;;15.20;99.90;;;;;;5086157;28;20231;-74
2023/12/09 09:39:57;;;;;;;8.82;7.88;;;16.80;99.90;;;;;;5069044;28;20202;-73
2023/12/09 09:42:26;;;;;;;8.65;7.88;;;17.50;99.90;;;;;;5082193;28;20232;-73
2023/12/09 09:45:06;;;;;;;8.70;7.80;;;17.40;99.90;;;;;;5082881;28;20198;-73
2023/12/09 09:47:39;;;;;;;7.97;7.28;;;17.10;99.90;;;;;;5081974;27;20242;-72
2023/12/09 09:50:08;;;;;;;8.70;7.90;;;17.00;99.90;;;;;;5085841;28;20197;-71
2023/12/09 09:52:37;;;;;;;8.82;8.02;;;16.30;99.90;;;;;;5083690;28;20985;-71
2023/12/09 09:55:06;;;;;;;8.73;8.02;;;15.50;99.90;;;;;;5077513;28;20205;-71
2023/12/09 09:57:34;;;;;;;8.43;7.63;;;14.40;99.90;;;;;;5080407;28;20245;-71
2023/12/09 10:00:01;;;;;;;7.93;7.22;;;13.20;99.90;;;;;;5082503;28;20200;-71
2023/12/09 10:02:29;;;;;;;8.20;7.50;;;12.40;99.90;;;;;;5081840;28;20218;-71
2023/12/09 10:04:57;;;;;;;8.95;8.18;;;11.80;99.90;;;;;;5076114;28;20206;-73
2023/12/09 10:07:25;;;;;;;8.25;7.50;;;11.40;99.90;;;;;;5075800;28;20226;-73
2023/12/09 10:09:52;;;;;;;8.00;7.30;;;11.10;99.90;;;;;;5079770;28;20210;-72
2023/12/09 10:12:19;;;;;;;8.63;7.93;;;10.70;99.90;;;;;;5080027;28;20217;-73
2023/12/09 10:14:46;;;;;;;9.18;8.35;;;10.50;99.90;;;;;;5081863;27;20198;-73
2023/12/09 10:17:14;;;;;;;10.05;8.52;;;10.50;99.90;;;;;;5083188;28;20226;-72
2023/12/09 10:19:42;;;;;;;8.13;7.40;;;10.50;99.90;;;;;;5088896;28;20228;-72
2023/12/09 10:22:11;;;;;;;9.43;8.63;;;10.30;99.90;;;;;;5085321;28;20720;-73
2023/12/09 10:24:38;;;;;;;8.63;7.78;;;10.10;99.90;;;;;;5080152;28;20313;-72
2023/12/09 10:27:07;;;;;;;9.48;8.68;;;10.10;99.90;;;;;;5079914;28;20309;-72
2023/12/09 10:29:34;;;;;;;8.63;7.70;;;10.20;99.90;;;;;;5081867;28;20198;-74
2023/12/09 10:32:02;;;;;;;8.68;7.97;;;10.50;99.90;;;;;;5081552;28;20217;-72
2023/12/09 10:34:30;;;;;;;8.63;7.82;;;10.70;99.90;;;;;;5079987;28;20226;-73
2023/12/09 10:36:57;;;;;;;8.57;7.82;;;10.70;99.90;;;;;;5082489;28;20221;-73
2023/12/09 10:39:26;;;;;;;9.75;8.85;;;10.70;99.90;;;;;;5078803;28;20201;-73
2023/12/09 10:41:53;;;;;;;9.50;8.60;;;10.70;99.90;;;;;;5080750;28;20221;-72
2023/12/09 10:44:22;;;;;;;9.40;8.60;;;10.90;99.90;;;;;;5081007;28;20202;-71
2023/12/09 10:46:49;;;;;;;8.63;7.93;;;10.70;99.90;;;;;;5083112;28;20252;-72
2023/12/09 10:49:16;;;;;;;9.63;8.27;;;10.50;99.90;;;;;;5081028;28;20738;-73
2023/12/09 10:51:44;;;;;;;9.43;8.45;;;10.70;99.90;;;;;;5082967;28;20233;-72
2023/12/09 10:54:11;;;;;;;8.35;7.55;;;10.90;99.90;;;;;;5081975;28;20224;-73
2023/12/09 10:56:41;;;;;;;8.50;7.70;;;11.00;99.90;;;;;;5087874;28;20228;-73
2023/12/09 10:59:10;;;;;;;8.65;7.90;;;11.10;99.90;;;;;;5083300;28;20202;-74
2023/12/09 11:01:37;;;;;;;8.25;7.45;;;11.00;99.90;;;;;;5080231;28;20226;-73
2023/12/09 11:04:06;;;;;;;8.02;7.32;;;10.80;99.90;;;;;;5077275;28;20209;-73
2023/12/09 11:06:36;;;;;;;8.00;7.30;;;10.80;99.90;;;;;;5079251;28;20212;-72
2023/12/09 11:09:05;;;;;;;10.02;7.65;;;10.70;99.90;;;;;;5077309;28;20587;-71
2023/12/09 11:11:33;;;;;;;8.05;7.35;;;10.50;99.90;;;;;;5076460;28;20269;-72
2023/12/09 11:14:01;;;;;;;9.85;8.25;;;10.50;99.90;;;;;;5086999;28;20218;-74
2023/12/09 11:16:29;;;;;;;7.90;7.22;;;10.70;99.90;;;;;;5081257;28;20202;-71
2023/12/09 11:18:57;;;;;;;8.48;7.38;;;10.90;99.90;;;;;;5077536;28;20206;-72
2023/12/09 11:21:26;;;;;;;8.57;7.30;;;11.20;99.90;;;;;;5082225;28;20217;-70
2023/12/09 11:23:55;;;;;;;7.82;7.13;;;11.40;99.90;;;;;;5079965;28;20241;-71
2023/12/09 11:26:29;;;;;;;8.45;7.65;;;11.60;99.90;;;;;;5078946;28;20194;-71
2023/12/09 11:28:59;;;;;;;8.55;7.75;;;11.40;99.90;;;;;;5080023;28;20246;-71
2023/12/09 11:31:35;;;;;;;7.70;7.00;;;11.20;99.90;;;;;;5077547;28;20225;-72
2023/12/09 11:34:03;;;;;;;9.00;8.20;;;10.90;99.90;;;;;;5079993;28;20246;-71
2023/12/09 11:36:35;;;;;;;7.13;6.57;;;10.90;99.90;;;;;;5081610;28;20684;-71
2023/12/09 11:39:04;;;;;;;8.07;7.28;;;11.10;99.90;;;;;;5076251;28;20218;-71
2023/12/09 11:41:32;;;;;;;7.28;6.68;;;11.30;99.90;;;;;;5085164;28;20776;-72
2023/12/09 11:44:01;;;;;;;8.07;7.38;;;11.40;99.90;;;;;;5078545;28;20286;-71
2023/12/09 11:46:31;;;;;;;7.78;7.03;;;11.50;99.90;;;;;;5073799;28;20222;-71
2023/12/09 11:49:00;;;;;;;8.00;7.30;;;11.60;99.90;;;;;;5076116;28;20210;-71
2023/12/09 11:51:29;;;;;;;7.53;6.82;;;11.40;99.90;;;;;;5076053;28;20222;-72
2023/12/09 11:53:57;;;;;;;7.03;6.32;;;11.00;99.90;;;;;;5076833;28;20218;-71
2023/12/09 11:56:24;;;;;;;7.43;6.82;;;10.40;99.90;;;;;;5080090;28;20193;-71
2023/12/09 11:58:51;;;;;;;7.90;7.20;;;10.20;99.90;;;;;;5076958;28;20212;-71
2023/12/09 12:01:19;;;;;;;6.82;6.32;;;10.20;99.90;;;;;;5081343;28;20229;-71
2023/12/09 12:03:48;;;;;;;7.25;6.55;;;10.10;99.90;;;;;;5085979;28;20244;-70
2023/12/09 12:06:17;;;;;;;6.50;6.00;;;10.30;99.90;;;;;;5078578;28;20205;-71
2023/12/09 12:08:45;;;;;;;6.97;6.38;;;10.40;99.90;;;;;;5075244;28;20289;-71
2023/12/09 12:11:12;;;;;;;7.30;6.65;;;10.40;99.90;;;;;;5079021;28;20422;-71
2023/12/09 12:13:40;;;;;;;7.63;6.50;;;10.50;99.90;;;;;;5075311;28;20226;-71
2023/12/09 12:16:09;;;;;;;6.72;6.22;;;10.60;99.90;;;;;;5076689;28;20771;-72
2023/12/09 12:18:36;;;;;;;6.47;5.88;;;10.60;99.90;;;;;;5077461;28;20221;-70
2023/12/09 12:21:04;;;;;;;7.40;6.70;;;10.70;99.90;;;;;;5074107;28;20305;-72
2023/12/09 12:23:33;;;;;;;6.05;5.57;;;10.70;99.90;;;;;;5078125;28;20221;-71
2023/12/09 12:26:01;;;;;;;5.75;5.25;;;10.20;99.90;;;;;;5077673;28;20194;-71
2023/12/09 12:28:28;;;;;;;5.78;5.28;;;9.80;99.90;;;;;;5079663;28;20213;-71
2023/12/09 12:30:59;;;;;;;6.05;5.55;;;9.20;99.90;;;;;;5075519;28;20244;-71
2023/12/09 12:33:28;;;;;;;6.40;5.90;;;8.70;99.90;;;;;;5078615;28;20218;-71
2023/12/09 12:35:56;;;;;;;5.75;5.10;;;8.30;99.90;;;;;;5075499;28;20237;-70
2023/12/09 12:38:25;;;;;;;5.53;5.05;;;8.10;99.90;;;;;;5077104;28;20213;-71
2023/12/09 12:40:55;;;;;;;6.18;5.55;;;7.90;99.90;;;;;;5075552;28;20702;-71
2023/12/09 12:43:24;;;;;;;5.78;5.28;;;7.80;99.90;;;;;;5076914;28;20221;-70
2023/12/09 12:45:52;;;;;;;5.40;4.90;;;7.80;99.90;;;;;;5083191;28;20262;-71
2023/12/09 12:48:20;;;;;;;6.00;5.50;;;7.70;99.90;;;;;;5077545;28;20328;-71
2023/12/09 12:50:48;;;;;;;5.85;5.40;;;7.80;99.90;;;;;;5079146;28;20438;-72
2023/12/09 12:53:17;;;;;;;5.45;4.95;;;7.80;99.90;;;;;;5079251;28;20773;-71
2023/12/09 12:55:45;;;;;;;5.65;5.25;;;7.80;99.90;;;;;;5077410;28;20690;-71